createdAt,value
2018-10-11T00:02:13.816Z,98.40
2018-10-11T00:04:43.344Z,98.20
2018-10-11T00:07:12.352Z,98.30
2018-10-11T00:09:41.473Z,98.20
2018-10-11T00:12:11.002Z,98.20
2018-10-11T00:14:40.088Z,98.10
2018-10-11T00:17:09.084Z,98.00
2018-10-11T00:19:38.045Z,98.10
2018-10-11T00:22:07.761Z,98.20
2018-10-11T00:24:36.747Z,98.40
2018-10-11T00:27:05.826Z,98.60
2018-10-11T00:29:35.390Z,98.70
2018-10-11T00:32:04.339Z,98.90
2018-10-11T00:34:33.297Z,99.30
2018-10-11T00:37:02.356Z,98.90
2018-10-11T00:39:31.870Z,98.90
2018-10-11T00:42:00.860Z,98.80
2018-10-11T00:44:30.459Z,98.50
2018-10-11T00:47:00.263Z,98.50
2018-10-11T00:49:29.704Z,98.50
2018-10-11T00:51:59.239Z,98.50
2018-10-11T00:54:28.231Z,98.50
2018-10-11T00:56:57.188Z,98.60
2018-10-11T00:59:26.285Z,98.80
2018-10-11T01:01:55.210Z,98.80
2018-10-11T01:04:24.132Z,98.70
2018-10-11T01:06:53.105Z,98.40
2018-10-11T01:09:22.295Z,98.30
2018-10-11T01:11:51.219Z,98.10
2018-10-11T01:14:20.437Z,98.00
2018-10-11T01:16:49.379Z,98.00
2018-10-11T01:19:18.399Z,98.10
2018-10-11T01:21:47.251Z,98.10
2018-10-11T01:24:16.404Z,98.20
2018-10-11T01:26:45.307Z,98.30
2018-10-11T01:29:14.410Z,98.30
2018-10-11T01:31:43.316Z,98.30
2018-10-11T01:34:12.305Z,98.40
2018-10-11T01:36:41.193Z,98.50
2018-10-11T01:39:10.328Z,98.60
2018-10-11T01:41:39.309Z,98.60
2018-10-11T01:44:08.481Z,98.50
2018-10-11T01:46:37.285Z,98.60
2018-10-11T01:49:06.278Z,98.70
2018-10-11T01:51:35.449Z,98.70
2018-10-11T01:54:04.487Z,98.80
2018-10-11T01:56:33.579Z,98.80
2018-10-11T01:59:03.400Z,99.10
2018-10-11T02:01:32.316Z,99.40
2018-10-11T02:04:01.537Z,99.50
2018-10-11T02:06:30.518Z,99.60
2018-10-11T02:08:59.446Z,99.70
2018-10-11T02:11:28.496Z,99.90
2018-10-11T02:13:57.411Z,99.80
2018-10-11T02:16:26.309Z,99.90
2018-10-11T02:18:55.279Z,99.90
2018-10-11T02:21:24.185Z,99.90
2018-10-11T02:23:53.200Z,99.90
2018-10-11T02:26:22.180Z,99.90
2018-10-11T02:28:51.275Z,99.90
2018-10-11T02:31:20.132Z,99.90
2018-10-11T02:33:49.426Z,99.90
2018-10-11T02:36:18.341Z,99.90
2018-10-11T02:38:47.395Z,99.90
2018-10-11T02:41:16.436Z,99.90
2018-10-11T02:43:52.078Z,99.90
2018-10-11T02:46:21.065Z,99.90
2018-10-11T02:48:50.028Z,99.90
2018-10-11T02:51:18.942Z,99.90
2018-10-11T02:53:48.040Z,99.90
2018-10-11T02:56:19.425Z,99.90
2018-10-11T02:58:59.437Z,99.90
2018-10-11T03:01:28.568Z,99.90
2018-10-11T03:04:01.910Z,99.90
2018-10-11T03:06:31.528Z,99.90
2018-10-11T03:09:01.210Z,99.90
2018-10-11T03:11:30.554Z,99.90
2018-10-11T03:13:59.732Z,99.90
2018-10-11T03:16:28.649Z,99.90
2018-10-11T03:18:57.660Z,99.90
2018-10-11T03:21:26.615Z,99.90
2018-10-11T03:23:55.589Z,99.90
2018-10-11T03:26:24.557Z,99.90
2018-10-11T03:28:53.526Z,99.90
2018-10-11T03:31:22.383Z,99.90
2018-10-11T03:33:51.469Z,99.90
2018-10-11T03:36:20.467Z,99.90
2018-10-11T03:38:49.593Z,99.90
2018-10-11T03:41:18.501Z,99.90
2018-10-11T03:43:48.252Z,99.90
2018-10-11T03:46:17.234Z,99.90
2018-10-11T03:48:46.242Z,99.90
2018-10-11T03:51:15.135Z,99.90
2018-10-11T03:53:44.161Z,99.90
2018-10-11T03:56:13.296Z,99.90
2018-10-11T03:58:42.301Z,99.90
2018-10-11T04:01:11.505Z,99.90
2018-10-11T04:03:40.637Z,99.90
2018-10-11T04:06:09.608Z,99.90
2018-10-11T04:08:38.755Z,99.90
2018-10-11T04:11:07.641Z,99.90
2018-10-11T04:13:36.767Z,99.90
2018-10-11T04:16:05.742Z,99.90
2018-10-11T04:18:34.639Z,99.90
2018-10-11T04:21:03.680Z,99.90
2018-10-11T04:23:32.800Z,99.90
2018-10-11T04:26:02.050Z,99.90
2018-10-11T04:28:31.015Z,99.90
2018-10-11T04:31:00.453Z,99.90
2018-10-11T04:33:29.755Z,99.90
2018-10-11T04:35:59.313Z,99.90
2018-10-11T04:38:28.835Z,99.90
2018-10-11T04:40:58.065Z,99.90
2018-10-11T04:43:27.115Z,99.90
2018-10-11T04:45:56.217Z,99.90
2018-10-11T04:48:25.199Z,99.90
2018-10-11T04:50:54.170Z,99.90
2018-10-11T04:53:23.235Z,99.90
2018-10-11T04:55:52.188Z,99.90
2018-10-11T04:58:21.117Z,99.90
2018-10-11T05:00:50.167Z,99.90
2018-10-11T05:03:19.123Z,99.90
2018-10-11T05:05:48.125Z,99.90
2018-10-11T05:08:17.198Z,99.90
2018-10-11T05:10:46.425Z,99.90
2018-10-11T05:13:15.877Z,99.90
2018-10-11T05:15:45.548Z,99.90
2018-10-11T05:18:17.556Z,99.90
2018-10-11T05:20:46.671Z,99.90
2018-10-11T05:23:15.644Z,99.90
2018-10-11T05:25:44.908Z,99.90
2018-10-11T05:28:13.905Z,99.90
2018-10-11T05:30:45.157Z,99.90
2018-10-11T05:33:15.172Z,99.90
2018-10-11T05:35:44.476Z,99.90
2018-10-11T05:38:13.710Z,99.90
2018-10-11T05:40:42.664Z,99.90
2018-10-11T05:43:12.485Z,99.90
2018-10-11T05:45:43.676Z,99.90
2018-10-11T05:48:12.738Z,99.90
2018-10-11T05:50:41.900Z,99.90
2018-10-11T05:53:10.908Z,99.90
2018-10-11T05:55:40.270Z,99.90
2018-10-11T05:58:09.566Z,99.90
2018-10-11T06:00:38.618Z,99.90
2018-10-11T06:03:07.768Z,99.90
2018-10-11T06:05:36.986Z,99.90
2018-10-11T06:08:06.698Z,99.90
2018-10-11T06:10:37.810Z,99.90
2018-10-11T06:13:07.937Z,99.90
2018-10-11T06:15:37.392Z,99.90
2018-10-11T06:18:06.707Z,99.90
2018-10-11T06:20:36.090Z,99.90
2018-10-11T06:23:05.358Z,99.90
2018-10-11T06:25:34.425Z,99.90
2018-10-11T06:28:03.585Z,99.90
2018-10-11T06:30:33.816Z,99.90
2018-10-11T06:33:07.402Z,99.90
2018-10-11T06:35:38.648Z,99.90
2018-10-11T06:38:11.279Z,99.90
2018-10-11T06:40:42.209Z,99.90
2018-10-11T06:43:13.149Z,99.90
2018-10-11T06:45:45.354Z,99.90
2018-10-11T06:48:17.258Z,99.90
2018-10-11T06:50:48.689Z,99.90
2018-10-11T06:53:19.936Z,99.90
2018-10-11T06:55:52.418Z,99.90
2018-10-11T06:58:23.805Z,99.90
2018-10-11T07:00:56.034Z,99.90
2018-10-11T07:03:27.113Z,99.90
2018-10-11T07:05:58.636Z,99.90
2018-10-11T07:08:30.444Z,99.90
2018-10-11T07:11:02.119Z,99.90
2018-10-11T07:13:33.485Z,99.90
2018-10-11T07:16:05.246Z,99.90
2018-10-11T07:18:34.294Z,99.90
2018-10-11T07:21:03.699Z,99.90
2018-10-11T07:23:32.996Z,99.90
2018-10-11T07:26:03.996Z,99.90
2018-10-11T07:28:33.280Z,99.90
2018-10-11T07:31:02.252Z,99.90
2018-10-11T07:33:31.565Z,99.90
2018-10-11T07:36:01.419Z,99.90
2018-10-11T07:38:30.511Z,99.90
2018-10-11T07:41:00.019Z,99.90
2018-10-11T07:43:29.549Z,99.90
2018-10-11T07:45:58.821Z,99.80
2018-10-11T07:48:27.857Z,99.70
2018-10-11T07:50:57.137Z,99.70
2018-10-11T07:53:26.220Z,99.50
2018-10-11T07:55:55.594Z,99.30
2018-10-11T07:58:24.950Z,99.30
2018-10-11T08:00:54.221Z,99.20
2018-10-11T08:03:23.715Z,99.20
2018-10-11T08:05:52.776Z,99.10
2018-10-11T08:08:21.918Z,99.00
2018-10-11T08:10:51.277Z,98.80
2018-10-11T08:13:20.650Z,98.80
2018-10-11T08:15:49.909Z,98.60
2018-10-11T08:18:19.363Z,98.40
2018-10-11T08:20:48.698Z,98.20
2018-10-11T08:23:17.829Z,98.00
2018-10-11T08:25:47.480Z,97.80
2018-10-11T08:28:16.554Z,97.50
2018-10-11T08:30:46.122Z,97.20
2018-10-11T08:33:15.432Z,96.80
2018-10-11T08:35:44.369Z,96.30
2018-10-11T08:38:13.818Z,96.00
2018-10-11T08:40:42.919Z,95.90
2018-10-11T08:43:12.035Z,95.50
2018-10-11T08:45:41.188Z,94.80
2018-10-11T08:48:11.096Z,94.50
2018-10-11T08:50:40.228Z,94.00
2018-10-11T08:53:10.024Z,94.00
2018-10-11T08:55:39.216Z,93.80
2018-10-11T08:58:08.799Z,93.60
2018-10-11T09:00:37.970Z,93.30
2018-10-11T09:03:08.071Z,93.30
2018-10-11T09:05:37.263Z,93.40
2018-10-11T09:08:07.405Z,93.00
2018-10-11T09:10:38.450Z,92.50
2018-10-11T09:13:06.620Z,92.50
2018-10-11T09:15:35.657Z,92.40
2018-10-11T09:18:05.010Z,91.90
2018-10-11T09:20:34.549Z,91.70
2018-10-11T09:23:04.073Z,91.00
2018-10-11T09:25:33.272Z,90.70
2018-10-11T09:28:02.399Z,90.90
2018-10-11T09:30:32.001Z,90.70
2018-10-11T09:33:01.505Z,90.50
2018-10-11T09:35:30.800Z,90.40
2018-10-11T09:38:00.171Z,90.00
2018-10-11T09:40:29.730Z,88.70
2018-10-11T09:42:59.335Z,87.70
2018-10-11T09:45:28.909Z,86.10
2018-10-11T09:47:58.170Z,85.00
2018-10-11T09:50:27.259Z,84.50
2018-10-11T09:52:56.629Z,84.10
2018-10-11T09:55:25.992Z,82.80
2018-10-11T09:57:55.579Z,81.90
2018-10-11T10:00:30.043Z,81.30
2018-10-11T10:02:59.395Z,81.50
2018-10-11T10:05:28.955Z,81.10
2018-10-11T10:07:58.372Z,80.80
2018-10-11T10:10:28.530Z,79.50
2018-10-11T10:12:57.981Z,78.90
2018-10-11T10:15:27.358Z,76.20
2018-10-11T10:17:57.019Z,75.30
2018-10-11T10:20:26.195Z,74.70
2018-10-11T10:22:55.280Z,74.50
2018-10-11T10:25:24.862Z,75.00
2018-10-11T10:27:54.018Z,75.30
2018-10-11T10:30:28.516Z,74.30
2018-10-11T10:32:57.744Z,73.10
2018-10-11T10:35:28.059Z,72.30
2018-10-11T10:37:57.524Z,69.80
2018-10-11T10:40:27.089Z,68.50
2018-10-11T10:42:56.527Z,67.60
2018-10-11T10:45:26.049Z,67.30
2018-10-11T10:47:55.374Z,66.90
2018-10-11T10:50:24.842Z,66.70
2018-10-11T10:52:54.494Z,66.20
2018-10-11T10:55:23.808Z,65.60
2018-10-11T10:57:53.170Z,65.70
2018-10-11T11:00:22.496Z,64.40
2018-10-11T11:02:51.881Z,63.40
2018-10-11T11:05:21.104Z,63.00
2018-10-11T11:07:50.359Z,63.70
2018-10-11T11:10:19.772Z,65.40
2018-10-11T11:12:49.712Z,66.80
2018-10-11T11:15:18.785Z,68.30
2018-10-11T11:17:47.852Z,69.00
2018-10-11T11:20:17.549Z,68.50
2018-10-11T11:22:47.386Z,68.80
2018-10-11T11:25:16.624Z,68.30
2018-10-11T11:27:45.921Z,69.00
2018-10-11T11:30:15.453Z,67.80
2018-10-11T11:32:44.658Z,67.10
2018-10-11T11:35:13.918Z,68.20
2018-10-11T11:37:43.340Z,66.10
2018-10-11T11:40:12.494Z,64.30
2018-10-11T11:42:41.908Z,62.50
2018-10-11T11:45:11.169Z,61.40
2018-10-11T11:47:40.256Z,60.20
2018-10-11T11:50:09.517Z,59.70
2018-10-11T11:52:38.783Z,59.80
2018-10-11T11:55:08.170Z,60.60
2018-10-11T11:57:37.683Z,61.90
2018-10-11T12:00:07.012Z,63.00
2018-10-11T12:02:36.545Z,64.20
2018-10-11T12:05:06.103Z,64.50
2018-10-11T12:07:35.554Z,63.70
2018-10-11T12:10:05.137Z,63.00
2018-10-11T12:13:06.692Z,62.10
2018-10-11T12:15:36.761Z,60.50
2018-10-11T12:18:07.092Z,61.70
2018-10-11T12:20:37.804Z,62.80
2018-10-11T12:23:08.013Z,64.60
2018-10-11T12:25:37.365Z,66.20
2018-10-11T12:28:06.923Z,67.70
2018-10-11T12:30:36.225Z,69.30
2018-10-11T12:33:05.632Z,70.10
2018-10-11T12:35:35.028Z,71.40
2018-10-11T12:38:04.539Z,72.20
2018-10-11T12:40:33.838Z,73.10
2018-10-11T12:43:03.342Z,73.30
2018-10-11T12:45:32.758Z,74.30
2018-10-11T12:48:02.278Z,74.30
2018-10-11T12:50:31.773Z,73.80
2018-10-11T12:53:01.708Z,73.10
2018-10-11T12:55:31.092Z,72.70
2018-10-11T12:58:00.490Z,72.50
2018-10-11T13:00:30.042Z,73.10
2018-10-11T13:02:59.486Z,74.30
2018-10-11T13:05:28.697Z,74.70
2018-10-11T13:07:57.914Z,75.40
2018-10-11T13:10:27.376Z,76.20
2018-10-11T13:13:05.221Z,76.60
2018-10-11T13:15:25.913Z,77.20
2018-10-11T13:17:55.103Z,77.00
2018-10-11T13:20:24.359Z,77.50
2018-10-11T13:22:53.536Z,76.90
2018-10-11T13:25:22.476Z,77.30
2018-10-11T13:27:51.411Z,77.10
2018-10-11T13:30:20.596Z,77.30
2018-10-11T13:32:49.745Z,77.70
2018-10-11T13:35:18.938Z,77.60
2018-10-11T13:37:47.930Z,77.30
2018-10-11T13:40:17.198Z,77.30
2018-10-11T13:42:46.232Z,77.70
2018-10-11T13:45:15.327Z,78.60
2018-10-11T13:47:45.459Z,79.00
2018-10-11T13:50:13.972Z,78.40
2018-10-11T13:52:43.299Z,78.80
2018-10-11T13:55:15.431Z,79.00
2018-10-11T13:57:42.503Z,78.90
2018-10-11T14:00:11.955Z,78.70
2018-10-11T14:02:41.238Z,78.20
2018-10-11T14:05:10.366Z,77.80
2018-10-11T14:07:39.631Z,77.20
2018-10-11T14:10:08.852Z,77.60
2018-10-11T14:12:38.065Z,76.60
2018-10-11T14:15:08.862Z,75.60
2018-10-11T14:17:38.085Z,74.70
2018-10-11T14:20:07.559Z,74.20
2018-10-11T14:22:37.195Z,72.70
2018-10-11T14:25:06.902Z,71.40
2018-10-11T14:27:36.158Z,72.00
2018-10-11T14:30:05.634Z,72.40
2018-10-11T14:32:34.670Z,72.90
2018-10-11T14:35:04.124Z,74.00
2018-10-11T14:37:36.193Z,74.90
2018-10-11T14:40:05.605Z,75.10
2018-10-11T14:42:34.674Z,75.50
2018-10-11T14:45:04.032Z,75.90
2018-10-11T14:47:33.031Z,76.10
2018-10-11T14:50:02.173Z,76.70
2018-10-11T14:52:31.267Z,76.90
2018-10-11T14:55:00.487Z,77.30
2018-10-11T14:57:29.767Z,77.40
2018-10-11T14:59:58.815Z,77.40
2018-10-11T15:02:27.810Z,77.60
2018-10-11T15:04:57.167Z,77.60
2018-10-11T15:07:26.345Z,77.50
2018-10-11T15:09:55.797Z,77.30
2018-10-11T15:12:25.033Z,77.30
2018-10-11T15:14:54.313Z,78.00
2018-10-11T15:17:23.698Z,77.80
2018-10-11T15:19:53.091Z,78.00
2018-10-11T15:22:23.644Z,78.40
2018-10-11T15:24:52.779Z,78.60
2018-10-11T15:27:21.893Z,78.90
2018-10-11T15:29:51.028Z,79.10
2018-10-11T15:32:20.518Z,79.50
2018-10-11T15:34:49.717Z,79.60
2018-10-11T15:37:18.939Z,79.80
2018-10-11T15:39:48.032Z,80.00
2018-10-11T15:42:17.206Z,80.20
2018-10-11T15:44:46.449Z,80.10
2018-10-11T15:47:15.713Z,79.60
2018-10-11T15:49:44.756Z,78.80
2018-10-11T15:52:14.142Z,79.10
2018-10-11T15:54:43.207Z,78.60
2018-10-11T15:57:12.208Z,78.50
2018-10-11T15:59:41.506Z,78.40
2018-10-11T16:02:10.645Z,78.30
2018-10-11T16:04:39.593Z,78.00
2018-10-11T16:07:08.507Z,77.80
2018-10-11T16:09:37.804Z,77.50
2018-10-11T16:12:06.869Z,77.70
2018-10-11T16:14:35.805Z,78.20
2018-10-11T16:17:04.805Z,79.40
2018-10-11T16:19:34.371Z,79.20
2018-10-11T16:22:04.810Z,79.80
2018-10-11T16:24:33.976Z,80.30
2018-10-11T16:27:03.328Z,80.60
2018-10-11T16:29:32.677Z,81.10
2018-10-11T16:32:03.311Z,81.60
2018-10-11T16:34:32.711Z,82.30
2018-10-11T16:37:02.456Z,82.90
2018-10-11T16:39:32.498Z,83.50
2018-10-11T16:42:01.957Z,84.30
2018-10-11T16:44:31.199Z,85.00
2018-10-11T16:47:01.383Z,85.70
2018-10-11T16:49:30.793Z,86.60
2018-10-11T16:52:00.467Z,87.50
2018-10-11T16:54:29.789Z,88.20
2018-10-11T16:57:00.013Z,89.10
2018-10-11T16:59:29.237Z,89.80
2018-10-11T17:01:58.642Z,90.20
2018-10-11T17:04:28.108Z,90.40
2018-10-11T17:06:57.253Z,90.60
2018-10-11T17:09:27.286Z,90.80
2018-10-11T17:11:56.413Z,91.10
2018-10-11T17:14:26.001Z,91.30
2018-10-11T17:16:56.641Z,91.40
2018-10-11T17:19:25.978Z,91.60
2018-10-11T17:21:55.737Z,91.80
2018-10-11T17:24:25.037Z,91.90
2018-10-11T17:26:54.438Z,92.00
2018-10-11T17:29:23.824Z,92.10
2018-10-11T17:31:53.678Z,92.10
2018-10-11T17:34:22.629Z,92.20
2018-10-11T17:36:51.581Z,92.30
2018-10-11T17:39:20.454Z,92.20
2018-10-11T17:41:49.561Z,92.30
2018-10-11T17:44:18.650Z,92.30
2018-10-11T17:46:47.620Z,92.30
2018-10-11T17:49:16.507Z,92.30
2018-10-11T17:51:45.518Z,92.60
2018-10-11T17:54:14.435Z,92.40
2018-10-11T17:56:43.502Z,92.40
2018-10-11T17:59:12.549Z,92.50
2018-10-11T18:01:41.756Z,92.60
2018-10-11T18:04:10.694Z,92.60
2018-10-11T18:06:39.876Z,92.60
2018-10-11T18:09:10.194Z,92.60
2018-10-11T18:11:39.161Z,92.60
2018-10-11T18:14:09.025Z,92.60
2018-10-11T18:16:38.511Z,92.70
2018-10-11T18:19:07.609Z,92.70
2018-10-11T18:21:36.806Z,92.80
2018-10-11T18:24:05.798Z,92.80
2018-10-11T18:26:35.113Z,92.80
2018-10-11T18:29:04.171Z,92.80
2018-10-11T18:31:33.308Z,92.80
2018-10-11T18:34:02.501Z,92.80
2018-10-11T18:36:31.634Z,92.90
2018-10-11T18:39:00.759Z,93.00
2018-10-11T18:41:30.130Z,93.00
2018-10-11T18:43:59.239Z,93.10
2018-10-11T18:46:28.483Z,93.10
2018-10-11T18:48:57.599Z,93.00
2018-10-11T18:51:26.647Z,93.00
2018-10-11T18:53:55.776Z,93.10
2018-10-11T18:56:25.195Z,93.00
2018-10-11T18:58:54.263Z,93.10
2018-10-11T19:01:23.691Z,93.20
2018-10-11T19:03:53.287Z,93.20
2018-10-11T19:06:22.960Z,93.20
2018-10-11T19:08:52.001Z,93.50
2018-10-11T19:11:21.266Z,93.30
2018-10-11T19:13:50.921Z,93.20
2018-10-11T19:16:20.456Z,93.20
2018-10-11T19:18:49.956Z,93.30
2018-10-11T19:21:19.556Z,93.40
2018-10-11T19:23:48.911Z,93.40
2018-10-11T19:26:18.432Z,93.40
2018-10-11T19:28:47.665Z,93.50
2018-10-11T19:31:16.858Z,93.60
2018-10-11T19:33:45.821Z,93.60
2018-10-11T19:36:14.953Z,93.60
2018-10-11T19:38:43.914Z,93.60
2018-10-11T19:41:12.920Z,93.80
2018-10-11T19:43:42.010Z,93.80
2018-10-11T19:46:11.586Z,93.90
2018-10-11T19:48:40.852Z,94.00
2018-10-11T19:51:10.133Z,94.00
2018-10-11T19:53:39.267Z,94.20
2018-10-11T19:56:08.340Z,94.30
2018-10-11T19:58:37.344Z,94.40
2018-10-11T20:01:06.557Z,94.40
2018-10-11T20:03:35.536Z,94.60
2018-10-11T20:06:04.667Z,94.70
2018-10-11T20:08:33.933Z,94.70
2018-10-11T20:11:02.836Z,94.80
2018-10-11T20:13:31.895Z,94.80
2018-10-11T20:16:01.124Z,94.90
2018-10-11T20:18:30.401Z,94.90
2018-10-11T20:20:59.544Z,95.00
2018-10-11T20:23:28.575Z,95.00
2018-10-11T20:25:57.899Z,95.00
2018-10-11T20:28:27.204Z,95.00
2018-10-11T20:30:59.173Z,95.10
2018-10-11T20:33:28.577Z,95.20
2018-10-11T20:35:58.348Z,95.20
2018-10-11T20:38:28.269Z,95.20
2018-10-11T20:40:57.634Z,95.30
2018-10-11T20:43:27.407Z,95.40
2018-10-11T20:45:56.790Z,95.40
2018-10-11T20:48:26.392Z,95.50
2018-10-11T20:50:55.460Z,95.60
2018-10-11T20:53:24.714Z,95.60
2018-10-11T20:55:54.181Z,95.60
2018-10-11T20:58:23.117Z,95.70
2018-10-11T21:00:52.022Z,95.60
2018-10-11T21:03:21.221Z,95.60
2018-10-11T21:05:50.277Z,95.70
2018-10-11T21:08:19.433Z,95.70
2018-10-11T21:10:48.331Z,95.80
2018-10-11T21:13:17.286Z,95.80
2018-10-11T21:15:46.191Z,95.80
2018-10-11T21:18:15.222Z,95.80
2018-10-11T21:20:44.139Z,95.90
2018-10-11T21:23:13.100Z,95.90
2018-10-11T21:25:42.038Z,95.90
2018-10-11T21:28:11.006Z,96.00
2018-10-11T21:30:40.020Z,96.00
2018-10-11T21:33:09.033Z,96.00
2018-10-11T21:35:37.948Z,96.10
2018-10-11T21:38:07.382Z,96.00
2018-10-11T21:40:36.700Z,96.00
2018-10-11T21:43:05.977Z,96.30
2018-10-11T21:45:34.951Z,96.00
2018-10-11T21:48:04.082Z,96.00
2018-10-11T21:50:33.121Z,96.00
2018-10-11T21:53:02.138Z,96.00
2018-10-11T21:55:31.081Z,96.00
2018-10-11T21:58:00.124Z,96.00
2018-10-11T22:00:34.349Z,96.00
2018-10-11T22:03:03.322Z,96.00
2018-10-11T22:05:32.272Z,96.00
2018-10-11T22:08:01.234Z,95.90
2018-10-11T22:10:30.173Z,95.80
2018-10-11T22:12:59.284Z,95.90
2018-10-11T22:15:28.202Z,96.00
2018-10-11T22:17:57.165Z,96.00
2018-10-11T22:20:26.091Z,96.00
2018-10-11T22:22:55.290Z,96.10
2018-10-11T22:25:24.549Z,96.10
2018-10-11T22:27:54.294Z,96.10
2018-10-11T22:30:23.391Z,96.10
2018-10-11T22:32:52.563Z,96.10
2018-10-11T22:35:21.561Z,96.00
2018-10-11T22:38:00.866Z,96.00
2018-10-11T22:40:30.231Z,95.90
2018-10-11T22:42:59.631Z,96.20
2018-10-11T22:45:28.825Z,95.80
2018-10-11T22:47:57.826Z,95.70
2018-10-11T22:50:27.731Z,95.70
2018-10-11T22:52:57.193Z,95.70
2018-10-11T22:55:27.175Z,95.70
2018-10-11T22:57:56.203Z,95.70
2018-10-11T23:00:25.198Z,95.70
2018-10-11T23:02:54.339Z,95.70
2018-10-11T23:05:23.688Z,95.70
2018-10-11T23:07:52.670Z,95.70
2018-10-11T23:10:21.873Z,95.70
2018-10-11T23:12:50.877Z,95.80
2018-10-11T23:15:19.989Z,95.70
2018-10-11T23:17:48.934Z,95.70
2018-10-11T23:20:18.001Z,95.80
2018-10-11T23:22:46.919Z,95.70
2018-10-11T23:25:15.926Z,95.70
2018-10-11T23:27:44.998Z,95.70
2018-10-11T23:30:14.003Z,96.00
2018-10-11T23:32:43.340Z,95.80
2018-10-11T23:35:12.575Z,95.80
2018-10-11T23:37:41.674Z,95.80
2018-10-11T23:40:11.983Z,95.80
2018-10-11T23:42:41.948Z,95.90
2018-10-11T23:45:12.275Z,95.80
2018-10-11T23:47:42.197Z,95.90
2018-10-11T23:50:11.253Z,95.90
2018-10-11T23:52:40.561Z,95.90
2018-10-11T23:55:09.998Z,95.90
2018-10-11T23:57:38.941Z,95.90
